createdAt,value
2022-09-15T00:01:28.973Z,36.58
2022-09-15T00:04:30.676Z,56.75
2022-09-15T00:07:32.284Z,66.47
2022-09-15T00:10:34.033Z,44.47
2022-09-15T00:13:37.018Z,55.13
2022-09-15T00:16:38.647Z,47.38
2022-09-15T00:19:40.288Z,45.95
2022-09-15T00:22:42.002Z,49.63
2022-09-15T00:25:49.267Z,54.38
2022-09-15T00:28:51.886Z,45.65
2022-09-15T00:31:53.499Z,40.83
2022-09-15T00:34:55.053Z,39.72
2022-09-15T00:37:56.590Z,53.20
2022-09-15T00:40:59.564Z,52.13
2022-09-15T00:44:25.996Z,54.58
2022-09-15T00:47:35.691Z,56.70
2022-09-15T00:50:39.079Z,44.13
2022-09-15T00:53:41.225Z,54.08
2022-09-15T00:56:46.641Z,52.75
2022-09-15T00:59:50.425Z,66.10
2022-09-15T01:02:52.114Z,53.58
2022-09-15T01:06:01.911Z,40.33
2022-09-15T01:09:06.445Z,51.60
2022-09-15T01:12:08.015Z,42.15
2022-09-15T01:15:09.742Z,54.00
2022-09-15T01:18:37.245Z,50.58
2022-09-15T01:22:06.193Z,46.63
2022-09-15T01:25:33.084Z,41.30
2022-09-15T01:29:13.526Z,66.00
2022-09-15T01:32:46.517Z,44.35
2022-09-15T01:35:48.400Z,45.53
2022-09-15T01:39:06.788Z,52.13
2022-09-15T01:42:13.099Z,47.90
2022-09-15T01:45:22.303Z,46.78
2022-09-15T01:48:27.267Z,38.20
2022-09-15T01:51:31.847Z,44.10
2022-09-15T01:54:39.000Z,48.22
2022-09-15T01:57:40.605Z,33.88
2022-09-15T02:00:48.038Z,45.83
2022-09-15T02:04:04.407Z,45.13
2022-09-15T02:07:16.273Z,46.17
2022-09-15T02:10:43.839Z,42.80
2022-09-15T02:13:48.584Z,39.95
2022-09-15T02:16:53.405Z,54.20
2022-09-15T02:20:05.396Z,38.45
2022-09-15T02:23:37.328Z,54.83
2022-09-15T02:26:41.148Z,51.17
2022-09-15T02:29:46.327Z,49.47
2022-09-15T02:33:02.699Z,48.90
2022-09-15T02:36:05.140Z,54.38
2022-09-15T02:39:13.799Z,45.65
2022-09-15T02:42:24.420Z,50.17
2022-09-15T02:45:26.827Z,47.95
2022-09-15T02:48:28.422Z,58.55
2022-09-15T02:51:30.959Z,57.67
2022-09-15T02:54:32.560Z,59.03
2022-09-15T02:57:34.224Z,53.22
2022-09-15T03:00:38.729Z,47.47
2022-09-15T03:03:43.005Z,58.42
2022-09-15T03:06:44.716Z,54.92
2022-09-15T03:09:46.520Z,63.13
2022-09-15T03:12:51.102Z,56.08
2022-09-15T03:15:52.655Z,57.25
2022-09-15T03:18:55.958Z,49.35
2022-09-15T03:21:57.636Z,54.10
2022-09-15T03:24:59.190Z,55.35
2022-09-15T03:28:00.693Z,46.17
2022-09-15T03:31:02.478Z,51.78
2022-09-15T03:34:04.351Z,50.78
2022-09-15T03:37:06.799Z,54.83
2022-09-15T03:40:10.611Z,36.63
2022-09-15T03:43:18.055Z,34.55
2022-09-15T03:46:20.492Z,40.22
2022-09-15T03:49:22.221Z,40.25
2022-09-15T03:52:23.758Z,49.40
2022-09-15T03:55:25.332Z,42.80
2022-09-15T03:58:30.139Z,47.30
2022-09-15T04:01:32.740Z,61.42
2022-09-15T04:04:34.746Z,41.72
2022-09-15T04:07:36.418Z,49.15
2022-09-15T04:10:38.811Z,42.55
2022-09-15T04:13:41.899Z,55.80
2022-09-15T04:16:43.471Z,46.92
2022-09-15T04:19:45.081Z,57.70
2022-09-15T04:22:46.620Z,58.85
2022-09-15T04:26:02.022Z,50.35
2022-09-15T04:29:05.607Z,52.83
2022-09-15T04:32:07.366Z,56.90
2022-09-15T04:35:09.394Z,52.00
2022-09-15T04:38:11.312Z,42.97
2022-09-15T04:41:14.100Z,51.75
2022-09-15T04:44:15.655Z,49.83
2022-09-15T04:47:17.481Z,46.33
2022-09-15T04:50:19.458Z,52.60
2022-09-15T04:53:21.005Z,47.05
2022-09-15T04:56:25.514Z,52.67
2022-09-15T04:59:27.064Z,55.17
2022-09-15T05:02:28.668Z,38.80
2022-09-15T05:05:30.316Z,38.42
2022-09-15T05:08:32.056Z,49.90
2022-09-15T05:11:33.966Z,50.83
2022-09-15T05:14:35.568Z,59.42
2022-09-15T05:17:37.096Z,48.25
2022-09-15T05:20:38.788Z,58.47
2022-09-15T05:23:40.348Z,46.35
2022-09-15T05:26:41.915Z,52.35
2022-09-15T05:29:43.520Z,47.35
2022-09-15T05:32:45.082Z,58.38
2022-09-15T05:35:54.948Z,52.40
2022-09-15T05:38:57.197Z,48.47
2022-09-15T05:41:59.648Z,49.53
2022-09-15T05:45:01.202Z,46.60
2022-09-15T05:48:03.846Z,52.33
2022-09-15T05:51:05.722Z,47.47
2022-09-15T05:54:07.606Z,50.63
2022-09-15T05:57:09.107Z,41.20
2022-09-15T06:00:11.567Z,47.00
2022-09-15T06:03:15.279Z,53.05
2022-09-15T06:06:17.135Z,49.45
2022-09-15T06:09:18.735Z,40.72
2022-09-15T06:12:20.396Z,46.70
2022-09-15T06:15:23.532Z,48.03
2022-09-15T06:18:25.082Z,52.30
2022-09-15T06:21:29.623Z,42.22
2022-09-15T06:24:31.337Z,32.38
2022-09-15T06:27:33.169Z,43.42
2022-09-15T06:30:34.735Z,45.63
2022-09-15T06:33:36.292Z,41.35
2022-09-15T06:36:38.934Z,50.45
2022-09-15T06:39:40.745Z,43.92
2022-09-15T06:42:42.400Z,44.17
2022-09-15T06:45:43.982Z,44.60
2022-09-15T06:48:48.281Z,45.92
2022-09-15T06:51:50.243Z,46.70
2022-09-15T06:54:51.812Z,41.65
2022-09-15T06:57:53.394Z,40.70
2022-09-15T07:00:54.968Z,44.15
2022-09-15T07:03:58.190Z,48.38
2022-09-15T07:07:09.768Z,46.60
2022-09-15T07:10:11.779Z,51.22
2022-09-15T07:13:13.736Z,49.83
2022-09-15T07:16:15.996Z,47.22
2022-09-15T07:19:17.663Z,40.83
2022-09-15T07:22:19.270Z,45.50
2022-09-15T07:25:20.854Z,40.38
2022-09-15T07:28:22.486Z,33.92
2022-09-15T07:31:26.245Z,39.53
2022-09-15T07:34:27.837Z,44.63
2022-09-15T07:37:29.371Z,37.33
2022-09-15T07:40:32.093Z,38.00
2022-09-15T07:43:33.928Z,36.38
2022-09-15T07:46:35.516Z,42.03
2022-09-15T07:49:37.061Z,28.40
2022-09-15T07:52:38.597Z,34.53
2022-09-15T07:55:40.263Z,29.80
2022-09-15T07:58:41.851Z,29.15
2022-09-15T08:01:43.403Z,26.33
2022-09-15T08:04:45.036Z,26.10
2022-09-15T08:07:46.607Z,29.40
2022-09-15T08:10:50.407Z,23.02
2022-09-15T08:13:52.493Z,28.90
2022-09-15T08:16:54.165Z,29.75
2022-09-15T08:19:55.758Z,21.67
2022-09-15T08:22:59.637Z,31.27
2022-09-15T08:26:01.633Z,33.55
2022-09-15T08:29:03.232Z,26.75
2022-09-15T08:32:05.100Z,28.60
2022-09-15T08:35:08.500Z,20.05
2022-09-15T08:38:10.294Z,28.92
2022-09-15T08:41:24.196Z,21.52
2022-09-15T08:44:50.393Z,22.13
2022-09-15T08:47:59.830Z,18.65
2022-09-15T08:51:09.732Z,19.25
2022-09-15T08:54:18.510Z,19.38
2022-09-15T08:57:23.670Z,11.23
2022-09-15T09:00:26.306Z,12.13
2022-09-15T09:03:53.335Z,13.38
2022-09-15T09:07:35.263Z,12.48
2022-09-15T09:10:36.885Z,13.38
2022-09-15T09:14:01.245Z,11.48
2022-09-15T09:17:27.584Z,12.80
2022-09-15T09:20:43.119Z,13.85
2022-09-15T09:24:06.293Z,14.85
2022-09-15T09:27:14.050Z,9.38
2022-09-15T09:30:18.734Z,14.32
2022-09-15T09:34:06.262Z,9.70
2022-09-15T09:37:14.174Z,10.13
2022-09-15T09:40:16.792Z,11.55
2022-09-15T09:43:19.113Z,6.88
2022-09-15T09:46:21.590Z,7.32
2022-09-15T09:49:24.793Z,9.77
2022-09-15T09:52:37.619Z,7.85
2022-09-15T09:55:41.577Z,10.02
2022-09-15T09:58:44.408Z,13.43
2022-09-15T10:02:23.079Z,9.48
2022-09-15T10:05:24.813Z,7.15
2022-09-15T10:08:26.609Z,11.98
2022-09-15T10:11:48.455Z,13.40
2022-09-15T10:14:53.714Z,6.68
2022-09-15T10:17:56.857Z,10.85
2022-09-15T10:21:00.426Z,10.10
2022-09-15T10:24:26.933Z,9.75
2022-09-15T10:27:34.785Z,14.43
2022-09-15T10:30:37.683Z,10.70
2022-09-15T10:33:47.708Z,17.05
2022-09-15T10:36:49.496Z,9.43
2022-09-15T10:39:56.505Z,17.35
2022-09-15T10:43:24.309Z,12.70
2022-09-15T10:46:46.264Z,14.73
2022-09-15T10:50:07.720Z,12.45
2022-09-15T10:53:23.206Z,14.38
2022-09-15T10:56:36.756Z,12.68
2022-09-15T11:00:20.736Z,15.13
2022-09-15T11:03:43.738Z,10.82
2022-09-15T11:07:02.361Z,15.50
2022-09-15T11:10:46.064Z,7.50
2022-09-15T11:14:13.488Z,9.45
2022-09-15T11:17:24.003Z,8.23
2022-09-15T11:23:45.199Z,11.75
2022-09-15T11:26:53.269Z,15.35
2022-09-15T11:30:29.649Z,10.15
2022-09-15T11:34:07.724Z,8.35
2022-09-15T11:37:20.189Z,7.47
2022-09-15T11:40:36.722Z,11.38
2022-09-15T11:43:50.630Z,4.85
2022-09-15T11:46:57.315Z,10.95
2022-09-15T11:50:08.809Z,9.45
2022-09-15T11:53:27.702Z,11.73
2022-09-15T11:56:30.708Z,8.05
2022-09-15T11:59:39.049Z,16.23
2022-09-15T12:03:05.425Z,8.43
2022-09-15T12:06:14.973Z,7.28
2022-09-15T12:09:18.830Z,10.15
2022-09-15T12:12:22.388Z,9.95
2022-09-15T12:15:27.326Z,13.23
2022-09-15T12:18:50.359Z,13.40
2022-09-15T12:22:07.010Z,17.42
2022-09-15T12:25:30.553Z,20.52
2022-09-15T12:29:02.598Z,12.05
2022-09-15T12:32:24.021Z,11.13
2022-09-15T12:35:30.373Z,16.38
2022-09-15T12:38:31.931Z,12.38
2022-09-15T12:41:33.701Z,14.43
2022-09-15T12:44:45.866Z,19.38
2022-09-15T12:47:54.663Z,11.73
2022-09-15T12:51:01.498Z,15.57
2022-09-15T12:54:07.359Z,11.98
2022-09-15T12:57:23.031Z,9.50
2022-09-15T13:01:17.072Z,10.60
2022-09-15T13:04:41.302Z,10.98
2022-09-15T13:07:54.934Z,13.70
2022-09-15T13:11:03.117Z,9.07
2022-09-15T13:14:07.584Z,11.77
2022-09-15T13:17:25.696Z,16.85
2022-09-15T13:20:33.165Z,8.02
2022-09-15T13:23:40.011Z,10.32
2022-09-15T13:26:44.644Z,8.95
2022-09-15T13:29:51.898Z,12.00
2022-09-15T13:33:05.572Z,7.85
2022-09-15T13:36:19.818Z,8.23
2022-09-15T13:39:52.826Z,6.80
2022-09-15T13:43:40.643Z,11.65
2022-09-15T13:46:57.330Z,8.23
2022-09-15T13:50:20.750Z,8.25
2022-09-15T13:53:23.232Z,8.98
2022-09-15T13:56:41.154Z,11.57
2022-09-15T13:59:42.834Z,15.70
2022-09-15T14:02:49.673Z,10.23
2022-09-15T14:05:55.909Z,10.10
2022-09-15T14:09:03.814Z,8.57
2022-09-15T14:12:12.816Z,12.45
2022-09-15T14:15:21.278Z,7.32
2022-09-15T14:18:22.903Z,12.68
2022-09-15T14:21:27.210Z,7.10
2022-09-15T14:24:32.149Z,12.23
2022-09-15T14:27:36.443Z,9.27
2022-09-15T14:30:38.662Z,8.48
2022-09-15T14:34:03.394Z,6.82
2022-09-15T14:37:29.053Z,10.32
2022-09-15T14:48:34.294Z,5.00
2022-09-15T14:51:36.085Z,14.80
2022-09-15T14:55:21.542Z,6.50
2022-09-15T14:59:11.747Z,7.68
2022-09-15T15:02:25.280Z,12.25
2022-09-15T15:05:42.593Z,8.77
2022-09-15T15:08:55.456Z,6.93
2022-09-15T15:12:00.742Z,10.07
2022-09-15T15:15:03.191Z,11.38
2022-09-15T15:18:30.886Z,10.43
2022-09-15T15:21:45.712Z,7.95
2022-09-15T15:24:52.408Z,12.45
2022-09-15T15:27:56.594Z,9.82
2022-09-15T15:31:25.048Z,11.55
2022-09-15T15:34:26.949Z,11.55
2022-09-15T15:37:37.357Z,13.23
2022-09-15T15:40:40.893Z,7.75
2022-09-15T15:43:57.349Z,13.63
2022-09-15T15:47:03.136Z,12.02
2022-09-15T15:50:14.924Z,8.20
2022-09-15T15:53:34.511Z,12.80
2022-09-15T15:56:39.945Z,11.52
2022-09-15T15:59:41.646Z,10.43
2022-09-15T16:03:32.854Z,13.82
2022-09-15T16:06:41.373Z,12.77
2022-09-15T16:09:54.883Z,20.92
2022-09-15T16:13:01.274Z,11.25
2022-09-15T16:16:31.720Z,14.55
2022-09-15T16:19:34.025Z,8.48
2022-09-15T16:22:39.542Z,13.95
2022-09-15T16:25:48.131Z,9.38
2022-09-15T16:28:50.285Z,10.57
2022-09-15T16:31:52.789Z,11.45
2022-09-15T16:34:57.869Z,13.50
2022-09-15T16:37:59.854Z,6.47
2022-09-15T16:41:02.597Z,9.35
2022-09-15T16:44:04.275Z,11.15
2022-09-15T16:47:11.623Z,8.85
2022-09-15T16:50:33.011Z,5.57
2022-09-15T16:53:55.535Z,4.25
2022-09-15T16:57:00.512Z,8.95
2022-09-15T17:00:12.780Z,5.07
2022-09-15T17:03:22.053Z,10.82
2022-09-15T17:06:39.146Z,4.15
2022-09-15T17:10:23.825Z,5.47
2022-09-15T17:13:39.185Z,9.65
2022-09-15T17:17:29.011Z,9.55
2022-09-15T17:20:39.228Z,8.02
2022-09-15T17:23:53.267Z,6.47
2022-09-15T17:27:15.253Z,10.32
2022-09-15T17:30:35.908Z,11.65
2022-09-15T17:36:43.147Z,10.48
2022-09-15T17:39:45.066Z,12.57
2022-09-15T17:42:53.337Z,6.82
2022-09-15T17:46:01.042Z,5.63
2022-09-15T17:49:02.609Z,8.35
2022-09-15T17:52:04.424Z,8.73
2022-09-15T17:55:16.491Z,13.45
2022-09-15T17:58:18.639Z,10.27
2022-09-15T18:01:20.323Z,12.27
2022-09-15T18:04:21.898Z,11.77
2022-09-15T18:07:23.577Z,12.82
2022-09-15T18:10:25.686Z,10.65
2022-09-15T18:13:29.557Z,14.95
2022-09-15T18:16:31.164Z,8.80
2022-09-15T18:19:32.806Z,9.00
2022-09-15T18:22:34.486Z,9.27
2022-09-15T18:25:36.904Z,16.73
2022-09-15T18:28:38.683Z,16.27
2022-09-15T18:31:40.579Z,17.50
2022-09-15T18:34:42.391Z,17.70
2022-09-15T18:37:45.178Z,18.58
2022-09-15T18:40:49.321Z,15.05
2022-09-15T18:43:51.044Z,10.55
2022-09-15T18:46:53.045Z,9.13
2022-09-15T18:49:54.810Z,12.57
2022-09-15T18:52:56.372Z,15.07
2022-09-15T18:55:57.913Z,11.13
2022-09-15T18:58:59.572Z,13.85
2022-09-15T19:02:01.556Z,13.82
2022-09-15T19:05:03.631Z,10.75
2022-09-15T19:08:08.190Z,11.60
2022-09-15T19:11:09.755Z,10.63
2022-09-15T19:14:11.361Z,8.68
2022-09-15T19:17:13.031Z,8.60
2022-09-15T19:20:15.684Z,11.10
2022-09-15T19:23:18.324Z,6.60
2022-09-15T19:26:20.002Z,11.93
2022-09-15T19:29:21.539Z,15.05
2022-09-15T19:32:23.113Z,11.48
2022-09-15T19:35:24.845Z,11.52
2022-09-15T19:38:26.396Z,12.07
2022-09-15T19:41:28.415Z,8.13
2022-09-15T19:44:29.989Z,12.00
2022-09-15T19:47:31.601Z,9.50
2022-09-15T19:50:33.306Z,10.30
2022-09-15T19:53:35.423Z,11.50
2022-09-15T19:56:37.217Z,8.00
2022-09-15T19:59:39.020Z,10.05
2022-09-15T20:02:40.886Z,5.82
2022-09-15T20:05:48.266Z,5.07
2022-09-15T20:08:56.848Z,9.43
2022-09-15T20:12:03.003Z,15.02
2022-09-15T20:15:05.292Z,13.40
2022-09-15T20:18:08.004Z,20.38
2022-09-15T20:21:12.316Z,10.10
2022-09-15T20:24:24.390Z,10.60
2022-09-15T20:27:25.896Z,6.50
2022-09-15T20:30:27.486Z,7.00
2022-09-15T20:33:30.047Z,12.90
2022-09-15T20:36:35.435Z,9.55
2022-09-15T20:39:37.078Z,10.65
2022-09-15T20:42:38.732Z,11.00
2022-09-15T20:45:40.303Z,9.10
2022-09-15T20:48:42.383Z,13.32
2022-09-15T20:51:44.308Z,7.28
2022-09-15T20:54:45.981Z,9.57
2022-09-15T20:57:47.778Z,10.70
2022-09-15T21:00:49.786Z,13.93
2022-09-15T21:03:51.968Z,7.60
2022-09-15T21:06:53.794Z,8.80
2022-09-15T21:09:55.781Z,12.18
2022-09-15T21:12:57.535Z,8.38
2022-09-15T21:16:02.089Z,8.35
2022-09-15T21:19:04.169Z,7.90
2022-09-15T21:22:06.264Z,11.80
2022-09-15T21:25:07.971Z,11.95
2022-09-15T21:28:09.503Z,10.50
2022-09-15T21:31:14.928Z,8.48
2022-09-15T21:34:16.921Z,16.58
2022-09-15T21:37:18.542Z,5.65
2022-09-15T21:40:20.112Z,13.75
2022-09-15T21:43:21.720Z,9.45
2022-09-15T21:46:26.566Z,12.23
2022-09-15T21:49:28.227Z,11.75
2022-09-15T21:52:30.941Z,15.07
2022-09-15T21:55:36.654Z,13.75
2022-09-15T21:58:43.018Z,11.65
2022-09-15T22:01:44.914Z,14.45
2022-09-15T22:04:46.825Z,11.27
2022-09-15T22:07:48.459Z,15.60
2022-09-15T22:10:50.027Z,8.23
2022-09-15T22:13:51.659Z,10.82
2022-09-15T22:16:55.014Z,12.95
2022-09-15T22:19:56.942Z,8.23
2022-09-15T22:23:01.705Z,10.70
2022-09-15T22:26:05.946Z,6.07
2022-09-15T22:29:07.555Z,7.65
2022-09-15T22:32:09.284Z,6.70
2022-09-15T22:35:11.365Z,9.02
2022-09-15T22:38:13.099Z,7.68
2022-09-15T22:41:16.935Z,7.78
2022-09-15T22:44:20.025Z,8.43
2022-09-15T22:47:21.575Z,6.63
2022-09-15T22:50:23.148Z,5.47
2022-09-15T22:53:25.467Z,5.18
2022-09-15T22:56:27.122Z,9.00
2022-09-15T22:59:28.751Z,5.97
2022-09-15T23:02:30.337Z,7.80
2022-09-15T23:05:31.908Z,6.50
2022-09-15T23:08:33.596Z,7.18
2022-09-15T23:11:37.594Z,3.80
2022-09-15T23:14:39.168Z,6.50
2022-09-15T23:17:40.922Z,10.05
2022-09-15T23:20:43.415Z,9.55
2022-09-15T23:23:47.588Z,5.70
2022-09-15T23:26:49.396Z,9.07
2022-09-15T23:29:50.983Z,4.70
2022-09-15T23:32:52.545Z,9.10
2022-09-15T23:35:55.230Z,9.23
2022-09-15T23:38:56.768Z,7.72
2022-09-15T23:41:58.290Z,9.02
2022-09-15T23:44:59.987Z,6.25
2022-09-15T23:48:02.961Z,6.22
2022-09-15T23:51:05.034Z,9.77
2022-09-15T23:54:06.746Z,6.97
2022-09-15T23:57:10.854Z,7.53
